Time;durP1;ratioP1;P1;durP2;ratioP2;P2;SDS_P1;SDS_P2;PMS_P1;PMS_P2;Temp;Humidity;BMP_temperature;BMP_pressure;BME280_temperature;BME280_humidity;BME280_pressure;Samples;Min_cycle;Max_cycle;Signal;HPM_P1;HPM_P2
2023/04/14 00:00:22;;;;;;;17.75;9.25;;;;;;;1.26;53.37;96690.44;6286504;28;20052;-65
2023/04/14 00:03:27;;;;;;;12.30;7.35;;;;;;;0.99;53.85;96693.88;6286850;28;20422;-65
2023/04/14 00:06:28;;;;;;;15.35;6.45;;;;;;;0.89;53.87;96673.44;6285363;28;20044;-65
2023/04/14 00:09:34;;;;;;;7.70;4.38;;;;;;;0.77;54.21;96689.34;6286535;28;20045;-65
2023/04/14 00:12:42;;;;;;;5.85;4.30;;;;;;;0.73;54.18;96690.31;6287703;28;20036;-65
2023/04/14 00:15:43;;;;;;;19.42;6.47;;;;;;;0.46;54.19;96678.16;6286505;28;20045;-66
2023/04/14 00:18:51;;;;;;;9.85;5.40;;;;;;;0.55;55.10;96683.06;6289070;28;20036;-65
2023/04/14 00:21:57;;;;;;;12.80;6.03;;;;;;;0.39;55.22;96678.31;6288045;28;20528;-66
2023/04/14 00:25:01;;;;;;;18.80;10.73;;;;;;;0.31;55.57;96695.81;6286649;28;20044;-66
2023/04/14 00:28:02;;;;;;;18.13;9.10;;;;;;;0.36;55.69;96693.94;6282316;28;20139;-65
2023/04/14 00:31:07;;;;;;;27.33;13.38;;;;;;;0.22;56.30;96685.69;6288865;28;20043;-66
2023/04/14 00:34:08;;;;;;;26.90;13.57;;;;;;;0.39;55.88;96688.66;6281850;28;20033;-67
2023/04/14 00:37:15;;;;;;;26.40;12.88;;;;;;;0.29;55.76;96670.88;6291194;28;20041;-66
2023/04/14 00:40:19;;;;;;;22.73;13.73;;;;;;;0.33;56.00;96675.91;6289019;28;20151;-65
2023/04/14 00:43:25;;;;;;;22.60;13.15;;;;;;;0.26;55.93;96673.53;6291491;28;20044;-65
2023/04/14 00:46:30;;;;;;;31.00;15.52;;;;;;;0.38;55.88;96683.53;6288068;28;20055;-65
2023/04/14 00:49:32;;;;;;;29.85;16.17;;;;;;;0.30;56.18;96678.56;6288216;28;20037;-65
2023/04/14 00:52:36;;;;;;;;;;;;;;;0.22;55.71;96696.03;6281440;28;20033;-65
2023/04/14 00:55:43;;;;;;;30.50;15.35;;;;;;;0.25;56.36;96675.25;6292124;28;19962;-65
2023/04/14 00:58:50;;;;;;;24.08;13.20;;;;;;;0.12;55.48;96679.09;6288980;28;20460;-66
2023/04/14 01:01:55;;;;;;;25.20;12.23;;;;;;;-0.06;56.62;96688.16;6290177;28;20049;-65
2023/04/14 01:04:58;;;;;;;20.65;9.82;;;;;;;-0.12;56.81;96691.75;6296676;28;20045;-66
2023/04/14 01:08:03;;;;;;;20.30;9.40;;;;;;;-0.20;55.98;96688.50;6294220;28;20036;-66
2023/04/14 01:11:16;;;;;;;26.13;8.63;;;;;;;-0.34;56.50;96688.00;6295424;28;20426;-65
2023/04/14 01:14:39;;;;;;;19.00;8.63;;;;;;;-0.49;56.94;96676.31;6291126;28;20242;-65
2023/04/14 01:17:57;;;;;;;31.23;9.98;;;;;;;-0.59;57.12;96685.19;6291126;28;20044;-66
2023/04/14 01:21:07;;;;;;;16.60;8.93;;;;;;;-0.71;57.07;96675.97;6291448;28;20048;-64
2023/04/14 01:24:36;;;;;;;21.25;10.65;;;;;;;-0.70;57.35;96677.69;6292260;28;20135;-65
2023/04/14 01:28:04;;;;;;;23.50;11.77;;;;;;;-0.92;57.50;96680.75;6285200;28;20044;-65
2023/04/14 01:31:24;;;;;;;20.42;9.60;;;;;;;-0.81;57.33;96690.00;6292354;28;20040;-65
2023/04/14 01:34:44;;;;;;;30.83;12.20;;;;;;;-0.98;57.40;96704.13;6288235;28;20055;-64
2023/04/14 01:37:58;;;;;;;19.73;9.13;;;;;;;-0.97;57.36;96686.91;6286188;28;20052;-65
2023/04/14 01:41:06;;;;;;;16.33;8.73;;;;;;;-1.21;57.88;96698.63;6294669;28;20044;-65
2023/04/14 01:44:10;;;;;;;13.10;7.85;;;;;;;-1.45;57.92;96695.66;6286908;28;20525;-65
2023/04/14 01:47:14;;;;;;;17.63;6.82;;;;;;;-1.41;58.48;96701.63;6291679;28;20056;-66
2023/04/14 01:50:18;;;;;;;15.18;6.07;;;;;;;-1.42;58.10;96698.16;6287510;28;20037;-65
2023/04/14 01:53:21;;;;;;;19.88;7.50;;;;;;;-1.50;57.50;96705.25;6287963;28;20052;-64
2023/04/14 01:56:26;;;;;;;30.80;10.35;;;;;;;-1.60;57.52;96709.72;6293211;28;20040;-65
2023/04/14 01:59:31;;;;;;;19.50;10.05;;;;;;;-1.77;58.27;96710.94;6287636;28;20055;-74
2023/04/14 02:02:36;;;;;;;16.33;7.65;;;;;;;-2.02;58.81;96701.06;6290902;28;20043;-76
2023/04/14 02:05:42;;;;;;;15.65;8.88;;;;;;;-1.99;59.13;96716.47;6291153;28;20053;-63
2023/04/14 02:08:47;;;;;;;17.80;9.07;;;;;;;-2.01;58.88;96713.06;6288203;28;20036;-65
2023/04/14 02:11:50;;;;;;;23.92;9.13;;;;;;;-2.01;58.70;96702.75;6290209;28;20049;-65
2023/04/14 02:14:54;;;;;;;17.42;9.05;;;;;;;-1.76;58.17;96710.03;6290427;28;20045;-68
2023/04/14 02:18:01;;;;;;;15.55;7.78;;;;;;;-1.79;58.15;96710.09;6290287;28;20411;-65
2023/04/14 02:21:04;;;;;;;18.38;9.82;;;;;;;-1.91;58.27;96719.75;6294463;28;20056;-67
2023/04/14 02:24:06;;;;;;;16.67;7.75;;;;;;;-1.77;57.91;96728.97;6287634;28;20525;-66
2023/04/14 02:27:23;;;;;;;20.70;6.95;;;;;;;-1.78;57.65;96735.88;6291985;28;20037;-69
2023/04/14 02:30:37;;;;;;;12.18;4.90;;;;;;;-1.76;57.02;96748.72;6282977;28;20521;-69
2023/04/14 02:33:43;;;;;;;14.68;6.70;;;;;;;-2.13;57.66;96759.69;6290920;28;20119;-69
2023/04/14 02:36:52;;;;;;;20.48;6.63;;;;;;;-2.07;57.44;96759.56;6290620;28;20044;-66
2023/04/14 02:40:02;;;;;;;10.48;5.45;;;;;;;-2.23;58.14;96761.56;6290935;28;20048;-64
2023/04/14 02:43:15;;;;;;;15.98;7.80;;;;;;;-2.31;57.90;96756.53;6287404;28;20045;-66
2023/04/14 02:46:23;;;;;;;40.58;8.20;;;;;;;-2.20;57.39;96734.91;6286584;28;20045;-66
2023/04/14 02:49:26;;;;;;;20.17;6.75;;;;;;;-2.38;57.67;96742.03;6282612;28;20395;-64
2023/04/14 02:52:30;;;;;;;14.48;6.32;;;;;;;-2.43;58.09;96741.28;6285618;28;20414;-66
2023/04/14 02:55:33;;;;;;;19.73;8.43;;;;;;;-2.64;58.16;96744.19;6288349;28;20036;-65
2023/04/14 02:58:38;;;;;;;21.90;6.45;;;;;;;-2.67;58.26;96733.91;6287151;28;20036;-66
2023/04/14 03:01:42;;;;;;;20.98;7.60;;;;;;;-2.67;58.89;96762.25;6291748;28;20090;-66
2023/04/14 03:04:44;;;;;;;16.88;6.57;;;;;;;-2.49;58.70;96738.81;6286861;28;20064;-67
2023/04/14 03:07:51;;;;;;;11.93;5.30;;;;;;;-2.46;58.57;96731.03;6286097;28;20037;-67
2023/04/14 03:10:54;;;;;;;21.08;5.82;;;;;;;-2.52;58.24;96725.94;6288251;28;20052;-67
2023/04/14 03:13:58;;;;;;;21.92;8.65;;;;;;;-2.71;58.53;96723.66;6287247;28;20482;-66
2023/04/14 03:17:00;;;;;;;20.48;7.47;;;;;;;-2.74;58.63;96731.44;6288667;28;20063;-69
2023/04/14 03:20:03;;;;;;;23.60;9.00;;;;;;;-2.74;58.42;96734.00;6285486;28;20033;-74
2023/04/14 03:23:06;;;;;;;18.42;7.40;;;;;;;-2.45;58.11;96722.41;6286201;28;20041;-68
2023/04/14 03:26:11;;;;;;;22.33;7.30;;;;;;;-2.47;57.79;96733.63;6279980;28;20434;-69
2023/04/14 03:29:18;;;;;;;21.98;8.18;;;;;;;-2.59;57.58;96742.38;6281835;28;20426;-68
2023/04/14 03:32:24;;;;;;;21.80;7.65;;;;;;;-2.54;58.04;96748.31;6289256;28;20040;-69
2023/04/14 03:35:26;;;;;;;8.90;5.25;;;;;;;-2.48;57.80;96748.22;6287643;28;20049;-67
2023/04/14 03:38:33;;;;;;;16.08;5.88;;;;;;;-2.24;56.65;96743.53;6282894;28;20052;-67
2023/04/14 03:41:38;;;;;;;11.75;6.00;;;;;;;-2.46;57.16;96749.06;6285641;28;20051;-67
2023/04/14 03:44:45;;;;;;;17.73;6.22;;;;;;;-2.42;57.15;96755.84;6285293;28;20455;-68
2023/04/14 03:48:33;;;;;;;16.90;5.93;;;;;;;-2.16;56.35;96759.75;6286317;28;20040;-68
2023/04/14 03:51:39;;;;;;;16.52;6.00;;;;;;;-2.33;56.28;96750.53;6281821;28;20053;-67
2023/04/14 03:54:44;;;;;;;14.30;6.05;;;;;;;-2.37;55.54;96756.63;6287475;28;20047;-66
2023/04/14 03:57:48;;;;;;;21.27;7.72;;;;;;;-2.50;55.10;96760.28;6286500;28;20179;-67
2023/04/14 04:00:58;;;;;;;15.77;6.35;;;;;;;-2.51;55.90;96751.69;6286008;28;20052;-67
2023/04/14 04:04:04;;;;;;;18.50;7.25;;;;;;;-2.55;56.31;96757.78;6289217;28;20048;-67
2023/04/14 04:07:12;;;;;;;21.23;6.03;;;;;;;-2.69;55.12;96758.84;6289079;28;20040;-68
2023/04/14 04:10:15;;;;;;;24.27;6.57;;;;;;;-2.84;54.97;96760.75;6289663;28;20206;-68
2023/04/14 04:13:19;;;;;;;15.77;6.40;;;;;;;-2.97;55.52;96759.25;6281490;28;20117;-68
2023/04/14 04:16:26;;;;;;;22.02;7.82;;;;;;;-2.86;55.91;96769.38;6286864;28;20131;-68
2023/04/14 04:19:39;;;;;;;19.05;6.97;;;;;;;-2.96;55.44;96760.94;6292748;28;20044;-67
2023/04/14 04:22:50;;;;;;;7.53;4.35;;;;;;;-2.79;55.81;96782.16;6281073;28;20044;-68
2023/04/14 04:25:57;;;;;;;14.02;5.55;;;;;;;-2.72;55.41;96781.22;6288056;28;20044;-67
2023/04/14 04:28:59;;;;;;;14.88;5.03;;;;;;;-2.64;54.72;96787.97;6289047;28;20040;-68
2023/04/14 04:32:00;;;;;;;14.93;5.57;;;;;;;-2.58;53.76;96788.72;6290587;28;20055;-68
2023/04/14 04:35:05;;;;;;;18.55;5.47;;;;;;;-2.75;53.87;96795.81;6291809;28;20052;-67
2023/04/14 04:38:10;;;;;;;15.10;5.10;;;;;;;-2.82;53.91;96774.47;6286363;28;20045;-68
2023/04/14 04:41:26;;;;;;;20.80;6.57;;;;;;;-2.83;53.56;96788.22;6301265;28;20231;-68
2023/04/14 04:44:33;;;;;;;18.80;7.13;;;;;;;-2.92;54.34;96802.94;6287271;28;20040;-68
2023/04/14 04:47:37;;;;;;;10.88;4.85;;;;;;;-2.74;53.89;96785.53;6291038;28;20040;-68
2023/04/14 04:50:39;;;;;;;19.45;7.38;;;;;;;-2.89;53.26;96803.72;6282183;28;20094;-69
2023/04/14 04:53:45;;;;;;;8.77;4.20;;;;;;;-2.75;52.90;96796.69;6286080;28;20044;-66
2023/04/14 04:56:49;;;;;;;20.70;6.53;;;;;;;-2.85;53.19;96795.13;6288038;28;20045;-67
2023/04/14 04:59:56;;;;;;;18.10;5.05;;;;;;;-2.90;52.47;96801.19;6283847;28;20051;-68
2023/04/14 05:03:00;;;;;;;17.00;6.18;;;;;;;-3.22;52.33;96772.41;6287782;28;20044;-74
2023/04/14 05:06:08;;;;;;;15.05;5.57;;;;;;;-2.73;52.56;96801.81;6286000;28;20484;-72
2023/04/14 05:09:13;;;;;;;21.95;5.03;;;;;;;-2.64;51.00;96793.97;6290135;28;21194;-71
2023/04/14 05:12:19;;;;;;;15.15;4.55;;;;;;;-2.68;50.73;96806.91;6289555;28;20465;-69
2023/04/14 05:15:24;;;;;;;25.25;5.00;;;;;;;-2.77;51.06;96813.91;6281801;28;20051;-68
2023/04/14 05:18:31;;;;;;;17.65;5.53;;;;;;;-2.84;51.81;96809.69;6283306;28;20569;-67
2023/04/14 05:21:37;;;;;;;16.83;5.57;;;;;;;-2.67;51.64;96788.00;6288901;28;20210;-69
2023/04/14 05:24:50;;;;;;;11.93;4.85;;;;;;;-2.62;51.68;96792.22;6285423;28;20101;-68
2023/04/14 05:27:57;;;;;;;19.45;6.82;;;;;;;-2.28;50.86;96792.56;6279392;28;20045;-67
2023/04/14 05:31:05;;;;;;;18.48;5.22;;;;;;;-2.44;50.70;96801.41;6285948;28;20045;-67
2023/04/14 05:34:06;;;;;;;9.30;3.70;;;;;;;-2.52;50.89;96808.38;6279994;28;20182;-67
2023/04/14 05:37:10;;;;;;;15.57;4.15;;;;;;;-2.47;51.07;96822.06;6286632;28;20045;-69
2023/04/14 05:40:17;;;;;;;16.33;3.78;;;;;;;-2.03;49.81;96789.59;6279976;28;20136;-69
2023/04/14 05:43:32;;;;;;;11.15;4.93;;;;;;;-2.06;49.60;96807.72;6280074;28;20422;-71
2023/04/14 05:46:36;;;;;;;18.17;5.40;;;;;;;-1.85;49.60;96804.75;6289095;28;20044;-71
2023/04/14 05:49:38;;;;;;;30.90;7.47;;;;;;;-1.73;47.93;96810.56;6289970;28;20617;-71
2023/04/14 05:52:44;;;;;;;10.88;4.32;;;;;;;-1.91;48.31;96817.75;6290833;28;20060;-70
2023/04/14 05:55:56;;;;;;;11.50;4.47;;;;;;;-1.91;48.24;96820.34;6296575;28;20430;-71
2023/04/14 05:59:00;;;;;;;10.27;3.42;;;;;;;-1.67;47.79;96800.16;6296741;28;20040;-71
2023/04/14 06:02:06;;;;;;;11.95;4.32;;;;;;;-1.60;47.11;96791.44;6295356;28;20067;-71
2023/04/14 06:05:08;;;;;;;14.63;4.10;;;;;;;-1.63;46.93;96801.81;6291908;28;20041;-70
2023/04/14 06:08:13;;;;;;;13.38;4.20;;;;;;;-1.59;46.90;96803.44;6294306;28;20486;-70
2023/04/14 06:11:19;;;;;;;18.52;4.32;;;;;;;-1.52;46.17;96805.06;6289596;28;20048;-69
2023/04/14 06:14:26;;;;;;;9.77;2.95;;;;;;;-1.35;46.26;96771.19;6292321;28;20056;-71
2023/04/14 06:17:27;;;;;;;10.15;3.55;;;;;;;-1.31;45.73;96767.66;6291229;28;20044;-71
2023/04/14 06:20:30;;;;;;;20.15;3.70;;;;;;;-1.26;45.97;96772.72;6293149;28;20037;-70
2023/04/14 06:23:31;;;;;;;20.95;4.75;;;;;;;-1.02;44.93;96769.66;6290178;28;20342;-73
2023/04/14 06:26:36;;;;;;;;;;;;;;;-0.84;44.78;96777.91;6291172;28;20032;-72
2023/04/14 06:29:40;;;;;;;14.35;3.58;;;;;;;-0.87;44.46;96777.97;6286375;28;20361;-69
2023/04/14 06:32:42;;;;;;;12.10;3.35;;;;;;;-0.80;44.38;96775.19;6288817;28;20047;-69
2023/04/14 06:35:45;;;;;;;5.65;2.78;;;;;;;-0.96;44.59;96779.00;6295355;28;20052;-71
2023/04/14 06:38:49;;;;;;;10.73;3.42;;;;;;;-0.86;44.30;96769.31;6293655;28;20059;-71
2023/04/14 06:41:58;;;;;;;9.95;3.92;;;;;;;-0.86;44.14;96769.31;6287985;28;20060;-70
2023/04/14 06:45:03;;;;;;;9.95;3.30;;;;;;;-0.84;43.03;96763.25;6288404;28;20048;-71
2023/04/14 06:48:06;;;;;;;10.80;3.08;;;;;;;-1.14;43.59;96754.41;6292382;28;20525;-69
2023/04/14 06:51:11;;;;;;;22.85;4.63;;;;;;;-1.12;43.88;96752.66;6295009;28;20506;-69
2023/04/14 06:54:15;;;;;;;8.00;2.55;;;;;;;-0.72;43.14;96751.78;6294627;28;20055;-70
2023/04/14 06:57:21;;;;;;;10.77;3.50;;;;;;;-0.60;42.30;96754.09;6294031;28;20044;-71
2023/04/14 07:00:26;;;;;;;8.80;2.75;;;;;;;-0.59;42.46;96737.72;6292671;28;20040;-71
2023/04/14 07:03:33;;;;;;;10.50;2.67;;;;;;;-0.31;41.78;96742.22;6292865;28;20433;-71
2023/04/14 07:06:37;;;;;;;8.50;2.67;;;;;;;-0.29;41.61;96745.63;6288897;28;20037;-71
2023/04/14 07:09:43;;;;;;;11.80;3.00;;;;;;;0.11;41.37;96740.28;6281570;28;20040;-70
2023/04/14 07:12:45;;;;;;;5.80;2.97;;;;;;;0.56;40.81;96733.94;6294645;28;20061;-70
2023/04/14 07:15:49;;;;;;;17.70;3.85;;;;;;;0.73;39.72;96717.94;6291942;28;20052;-71
2023/04/14 07:18:51;;;;;;;9.85;3.05;;;;;;;0.98;38.99;96728.44;6290171;28;20052;-71
2023/04/14 07:21:55;;;;;;;16.25;3.92;;;;;;;1.11;39.06;96709.06;6294263;28;20060;-71
2023/04/14 07:24:59;;;;;;;20.90;4.65;;;;;;;1.27;38.35;96715.47;6292392;28;20036;-71
2023/04/14 07:28:00;;;;;;;6.90;2.45;;;;;;;1.59;37.82;96699.81;6291501;28;20048;-70
2023/04/14 07:31:08;;;;;;;17.10;3.72;;;;;;;1.78;37.33;96724.25;6291408;28;20040;-69
2023/04/14 07:34:11;;;;;;;13.85;4.03;;;;;;;1.92;36.84;96697.84;6292020;28;20506;-70
2023/04/14 07:37:15;;;;;;;23.38;4.80;;;;;;;1.78;36.83;96717.34;6293267;28;20044;-70
2023/04/14 07:40:19;;;;;;;12.02;3.00;;;;;;;1.62;36.92;96741.22;6293638;28;20055;-71
2023/04/14 07:43:24;;;;;;;11.05;2.85;;;;;;;1.84;37.46;96733.56;6292663;28;20505;-71
2023/04/14 07:46:31;;;;;;;10.18;2.50;;;;;;;2.41;36.96;96733.38;6294060;28;20044;-71
2023/04/14 07:49:37;;;;;;;18.70;3.33;;;;;;;2.55;35.23;96729.44;6293658;28;20041;-70
2023/04/14 07:52:38;;;;;;;15.20;3.88;;;;;;;2.39;36.19;96739.53;6292911;28;20052;-71
2023/04/14 07:55:42;;;;;;;14.60;3.90;;;;;;;2.44;35.42;96733.28;6293594;28;20040;-70
2023/04/14 07:58:48;;;;;;;16.27;4.18;;;;;;;1.82;35.81;96732.78;6292868;28;20040;-70
2023/04/14 08:01:51;;;;;;;8.13;2.55;;;;;;;1.88;36.28;96727.41;6291290;28;20052;-70
2023/04/14 08:04:53;;;;;;;17.20;4.47;;;;;;;1.65;35.57;96721.22;6293142;28;20067;-71
2023/04/14 08:07:55;;;;;;;8.30;3.20;;;;;;;1.34;36.71;96722.16;6288690;28;20136;-69
2023/04/14 08:11:01;;;;;;;9.10;3.20;;;;;;;1.55;37.01;96740.53;6290808;28;20490;-70
2023/04/14 08:14:03;;;;;;;;;;;;;;;1.99;36.37;96726.16;6286276;28;20049;-70
2023/04/14 08:17:09;;;;;;;;;;;;;;;2.39;35.40;96716.16;6283452;28;20301;-71
2023/04/14 08:20:15;;;;;;;13.30;3.58;;;;;;;2.46;35.22;96704.63;6292431;28;20000;-70
2023/04/14 08:23:20;;;;;;;12.82;2.67;;;;;;;2.85;33.93;96696.31;6292292;28;20052;-70
2023/04/14 08:26:26;;;;;;;19.88;3.92;;;;;;;2.55;34.14;96693.94;6291046;28;20048;-71
2023/04/14 08:29:32;;;;;;;13.38;3.72;;;;;;;2.73;34.05;96681.19;6291137;28;20059;-72
2023/04/14 08:32:51;;;;;;;12.10;3.58;;;;;;;2.75;33.93;96694.97;6286942;28;20039;-70
2023/04/14 08:35:55;;;;;;;7.57;2.78;;;;;;;2.75;33.70;96674.19;6292767;28;20051;-70
2023/04/14 08:38:58;;;;;;;12.98;3.60;;;;;;;2.45;34.14;96682.19;6292182;28;20053;-72
2023/04/14 08:42:06;;;;;;;9.77;3.10;;;;;;;2.38;34.20;96660.78;6292114;28;20062;-71
2023/04/14 08:45:10;;;;;;;18.83;2.92;;;;;;;2.33;33.78;96667.88;6287344;28;20057;-71
2023/04/14 08:48:21;;;;;;;17.02;3.20;;;;;;;2.19;33.77;96660.56;6292925;28;20051;-71
2023/04/14 08:51:33;;;;;;;12.32;2.85;;;;;;;2.01;34.16;96656.03;6290755;28;20413;-70
2023/04/14 08:54:38;;;;;;;7.15;3.05;;;;;;;2.30;33.97;96661.97;6291515;28;20051;-71
2023/04/14 08:57:42;;;;;;;8.43;3.35;;;;;;;2.36;33.88;96664.34;6292782;28;20036;-72
2023/04/14 09:00:52;;;;;;;6.10;2.85;;;;;;;2.14;33.61;96657.28;6293122;28;20050;-71
2023/04/14 09:04:03;;;;;;;16.27;3.67;;;;;;;2.31;33.60;96668.84;6288998;28;20406;-71
2023/04/14 09:07:08;;;;;;;23.10;5.15;;;;;;;2.57;33.29;96668.75;6289782;28;20037;-71
2023/04/14 09:10:17;;;;;;;8.82;4.07;;;;;;;2.85;33.48;96675.53;6290839;28;20041;-70
2023/04/14 09:13:34;;;;;;;13.20;3.47;;;;;;;2.88;32.70;96667.59;6283349;28;20037;-71
2023/04/14 09:16:40;;;;;;;16.00;3.95;;;;;;;3.02;32.64;96673.13;6269949;28;20055;-70
2023/04/14 09:19:47;;;;;;;15.95;4.88;;;;;;;2.97;32.58;96688.03;6290918;28;20067;-70
2023/04/14 09:23:00;;;;;;;14.85;3.15;;;;;;;2.91;32.57;96680.50;6290723;28;20421;-71
2023/04/14 09:26:09;;;;;;;12.77;3.78;;;;;;;2.91;32.78;96690.88;6288110;28;20127;-71
2023/04/14 09:29:17;;;;;;;6.30;2.97;;;;;;;3.03;32.64;96700.84;6288813;28;20421;-71
2023/04/14 09:32:21;;;;;;;12.77;3.45;;;;;;;3.36;31.94;96698.69;6295570;28;20051;-71
2023/04/14 09:35:47;;;;;;;15.65;3.40;;;;;;;3.54;32.17;96702.31;6290551;28;20048;-71
2023/04/14 09:38:50;;;;;;;13.55;3.60;;;;;;;3.83;31.74;96692.50;6286759;28;20056;-71
2023/04/14 09:41:55;;;;;;;9.60;3.10;;;;;;;4.01;31.00;96691.72;6296672;28;20040;-71
2023/04/14 09:45:03;;;;;;;10.73;4.38;;;;;;;4.06;30.96;96691.53;6296089;28;20044;-70
2023/04/14 09:48:14;;;;;;;13.90;3.35;;;;;;;4.23;30.76;96670.00;6296337;28;20417;-71
2023/04/14 09:51:20;;;;;;;14.93;3.30;;;;;;;4.20;30.45;96677.94;6293995;28;20056;-70
2023/04/14 09:54:25;;;;;;;12.13;2.97;;;;;;;4.08;30.48;96681.03;6296319;28;20041;-70
2023/04/14 09:57:34;;;;;;;5.88;2.53;;;;;;;4.05;30.29;96669.88;6296561;28;20049;-71
2023/04/14 10:00:44;;;;;;;19.08;3.28;;;;;;;3.98;30.09;96660.63;6295598;28;20509;-69
2023/04/14 10:03:51;;;;;;;12.05;2.47;;;;;;;3.83;30.24;96682.94;6296142;28;20418;-71
2023/04/14 10:06:59;;;;;;;9.73;2.72;;;;;;;3.82;30.31;96680.38;6295373;28;20347;-70
2023/04/14 10:10:12;;;;;;;8.43;1.85;;;;;;;3.82;30.37;96668.22;6295308;28;20123;-72
2023/04/14 10:13:22;;;;;;;13.18;2.33;;;;;;;3.88;30.04;96651.50;6295493;28;20041;-71
2023/04/14 10:16:27;;;;;;;6.10;1.75;;;;;;;3.92;29.79;96654.84;6292315;28;20140;-71
2023/04/14 10:19:36;;;;;;;10.27;2.22;;;;;;;3.99;29.50;96672.75;6294207;28;20153;-72
2023/04/14 10:22:45;;;;;;;13.65;2.80;;;;;;;3.90;29.22;96641.88;6294757;28;20052;-70
2023/04/14 10:25:57;;;;;;;8.82;2.10;;;;;;;4.03;28.75;96648.25;6289030;28;20351;-71
2023/04/14 10:29:03;;;;;;;10.23;2.20;;;;;;;4.17;29.01;96665.06;6294015;28;20041;-70
2023/04/14 10:32:33;;;;;;;6.55;1.40;;;;;;;4.48;28.86;96644.56;6294565;28;20041;-70
2023/04/14 10:35:45;;;;;;;5.10;2.33;;;;;;;4.64;28.18;96649.09;6290200;28;20036;-71
2023/04/14 10:38:56;;;;;;;15.52;2.10;;;;;;;4.58;28.27;96665.00;6287227;28;20471;-71
2023/04/14 10:41:57;;;;;;;8.27;1.58;;;;;;;4.63;28.12;96657.84;6295097;28;20066;-71
2023/04/14 10:45:07;;;;;;;10.45;2.33;;;;;;;4.94;27.23;96642.47;6294254;28;20048;-71
2023/04/14 10:48:14;;;;;;;11.65;2.50;;;;;;;5.48;26.70;96652.16;6293347;28;20052;-72
2023/04/14 10:51:20;;;;;;;6.68;2.38;;;;;;;5.78;26.01;96635.00;6295105;28;20037;-72
2023/04/14 10:54:46;;;;;;;9.20;2.83;;;;;;;6.14;25.50;96646.31;6294614;28;20044;-71
2023/04/14 10:57:47;;;;;;;11.13;3.08;;;;;;;6.51;25.30;96647.88;6295094;28;20028;-71
2023/04/14 11:00:55;;;;;;;8.02;3.17;;;;;;;6.63;24.53;96644.63;6293974;28;20091;-71
2023/04/14 11:04:18;;;;;;;21.17;2.65;;;;;;;6.77;24.88;96656.16;6287969;28;20044;-71
2023/04/14 11:07:27;;;;;;;10.90;1.63;;;;;;;6.75;24.49;96656.22;6294462;28;20053;-72
2023/04/14 11:10:32;;;;;;;3.05;1.45;;;;;;;6.72;24.49;96653.75;6293304;28;20147;-72
2023/04/14 11:13:40;;;;;;;10.55;2.88;;;;;;;6.64;23.99;96661.16;6291888;28;20044;-72
2023/04/14 11:16:44;;;;;;;10.65;3.20;;;;;;;6.67;24.12;96658.38;6290401;28;20040;-72
2023/04/14 11:19:46;;;;;;;10.95;2.70;;;;;;;6.75;24.10;96654.44;6284776;28;20453;-71
2023/04/14 11:22:53;;;;;;;11.95;2.15;;;;;;;6.97;23.73;96648.06;6294144;28;20529;-71
2023/04/14 11:26:00;;;;;;;16.05;2.13;;;;;;;7.32;22.78;96653.13;6294826;28;20145;-73
2023/04/14 11:29:09;;;;;;;22.75;3.40;;;;;;;7.24;22.59;96655.34;6293774;28;20153;-72
2023/04/14 11:32:13;;;;;;;21.90;3.10;;;;;;;6.93;22.38;96651.75;6287658;28;20044;-71
2023/04/14 11:35:15;;;;;;;26.98;4.32;;;;;;;6.62;22.80;96661.22;6293626;28;20059;-71
2023/04/14 11:38:19;;;;;;;14.50;3.78;;;;;;;6.33;22.56;96656.69;6291495;28;20044;-70
2023/04/14 11:41:28;;;;;;;11.45;2.92;;;;;;;6.25;22.61;96665.75;6286583;28;20055;-71
2023/04/14 11:44:34;;;;;;;10.50;3.10;;;;;;;6.34;22.83;96668.81;6293713;28;20044;-71
2023/04/14 11:47:36;;;;;;;6.72;2.17;;;;;;;6.09;22.92;96659.63;6281849;28;20047;-72
2023/04/14 11:50:37;;;;;;;14.90;2.72;;;;;;;5.89;22.57;96660.59;6293094;28;20051;-71
2023/04/14 11:53:44;;;;;;;18.02;2.95;;;;;;;5.62;22.81;96649.72;6293162;28;20036;-71
2023/04/14 11:56:51;;;;;;;13.32;2.15;;;;;;;5.47;22.59;96653.09;6290735;28;20533;-72
2023/04/14 11:59:56;;;;;;;18.15;3.15;;;;;;;5.31;22.30;96666.00;6280634;28;20414;-71
2023/04/14 12:03:02;;;;;;;20.13;3.47;;;;;;;4.95;22.53;96649.41;6292455;28;20049;-72
2023/04/14 12:06:07;;;;;;;9.90;2.80;;;;;;;4.89;22.73;96669.69;6287966;28;20032;-70
2023/04/14 12:09:12;;;;;;;10.88;4.22;;;;;;;4.68;23.35;96681.94;6292630;28;20414;-72
2023/04/14 12:12:21;;;;;;;8.07;3.42;;;;;;;4.69;22.95;96660.16;6292697;28;20036;-73
2023/04/14 12:15:27;;;;;;;15.13;4.93;;;;;;;4.54;22.82;96671.28;6287553;28;20051;-72
2023/04/14 12:18:36;;;;;;;7.80;3.05;;;;;;;4.32;22.73;96661.78;6292364;28;20093;-71
2023/04/14 12:21:49;;;;;;;12.25;2.38;;;;;;;4.09;22.81;96667.13;6292328;28;20044;-72
2023/04/14 12:25:09;;;;;;;11.05;2.00;;;;;;;3.93;22.45;96670.38;6293046;28;20167;-72
2023/04/14 12:28:34;;;;;;;22.98;3.10;;;;;;;3.82;22.65;96664.75;6292188;28;20048;-71
2023/04/14 12:31:47;;;;;;;11.00;2.10;;;;;;;3.57;22.38;96685.75;6283650;28;20045;-71
2023/04/14 12:35:00;;;;;;;13.30;2.58;;;;;;;3.28;22.61;96677.31;6285585;28;20525;-71
2023/04/14 12:38:13;;;;;;;19.63;3.00;;;;;;;3.10;22.39;96684.09;6290427;28;20048;-71
2023/04/14 12:41:22;;;;;;;16.98;3.80;;;;;;;2.99;22.70;96688.00;6278453;28;20079;-71
2023/04/14 12:44:25;;;;;;;9.38;2.10;;;;;;;3.03;22.12;96690.44;6306951;28;20422;-71
2023/04/14 12:47:32;;;;;;;10.32;1.48;;;;;;;2.81;22.17;96684.34;6292831;28;20056;-71
2023/04/14 12:50:33;;;;;;;6.35;1.50;;;;;;;2.62;22.28;96685.00;6292217;28;20045;-72
2023/04/14 12:53:43;;;;;;;16.70;3.00;;;;;;;2.58;22.43;96691.22;6286309;28;20043;-71
2023/04/14 12:56:51;;;;;;;15.32;2.60;;;;;;;2.39;22.27;96692.78;6287226;28;20391;-71
2023/04/14 12:59:58;;;;;;;13.65;4.32;;;;;;;2.34;22.47;96700.72;6285599;28;20048;-71
2023/04/14 13:02:59;;;;;;;13.20;3.60;;;;;;;2.37;22.47;96694.59;6287334;28;20057;-71
2023/04/14 13:06:01;;;;;;;10.88;2.92;;;;;;;2.28;22.61;96713.09;6295901;28;20056;-71
2023/04/14 13:09:06;;;;;;;20.42;2.45;;;;;;;2.18;22.19;96703.03;6290963;28;20173;-72
2023/04/14 13:12:09;;;;;;;7.35;3.28;;;;;;;2.13;22.09;96680.72;6290644;28;20377;-71
2023/04/14 13:15:14;;;;;;;7.78;2.80;;;;;;;2.03;22.23;96680.16;6297296;28;20048;-72
2023/04/14 13:18:22;;;;;;;13.40;3.05;;;;;;;1.99;22.19;96678.59;6297124;28;20493;-71
2023/04/14 13:21:29;;;;;;;8.13;3.10;;;;;;;1.92;22.26;96688.31;6296084;28;20044;-70
2023/04/14 13:24:31;;;;;;;13.20;2.20;;;;;;;1.80;22.30;96694.75;6288450;28;20477;-70
2023/04/14 13:27:35;;;;;;;12.38;2.50;;;;;;;1.71;22.13;96692.47;6291526;28;20044;-70
2023/04/14 13:30:43;;;;;;;10.88;1.90;;;;;;;1.57;22.09;96690.31;6295615;28;20036;-70
2023/04/14 13:33:51;;;;;;;13.52;2.63;;;;;;;1.51;22.43;96684.50;6296561;28;20498;-70
2023/04/14 13:36:56;;;;;;;7.75;3.38;;;;;;;1.49;22.22;96681.09;6296472;28;20489;-71
2023/04/14 13:40:02;;;;;;;10.07;3.65;;;;;;;1.43;22.23;96683.91;6289472;28;20392;-70
2023/04/14 13:43:10;;;;;;;13.50;4.10;;;;;;;1.44;22.61;96664.84;6296253;28;20048;-71
2023/04/14 13:46:14;;;;;;;8.55;3.20;;;;;;;1.40;22.50;96673.63;6294291;28;20221;-70
2023/04/14 13:49:18;;;;;;;14.50;3.88;;;;;;;1.46;22.17;96696.75;6295061;28;20036;-70
2023/04/14 13:52:25;;;;;;;15.45;4.03;;;;;;;1.28;22.71;96701.63;6295868;28;20044;-70
2023/04/14 13:55:30;;;;;;;13.32;4.38;;;;;;;1.06;22.34;96711.78;6295642;28;20047;-71
2023/04/14 13:58:31;;;;;;;8.95;4.82;;;;;;;1.06;22.08;96700.56;6295719;28;20533;-70
2023/04/14 14:01:39;;;;;;;13.45;5.97;;;;;;;1.10;21.93;96707.34;6290795;28;20421;-70
2023/04/14 14:04:45;;;;;;;23.15;7.00;;;;;;;0.88;21.99;96715.78;6293431;28;20062;-70
2023/04/14 14:07:49;;;;;;;16.13;5.18;;;;;;;0.69;21.86;96714.59;6292811;28;20041;-71
2023/04/14 14:10:58;;;;;;;9.18;4.38;;;;;;;0.53;22.40;96705.56;6296317;28;20096;-70
2023/04/14 14:14:05;;;;;;;13.57;5.10;;;;;;;0.61;23.44;96730.34;6302127;28;20622;-71
2023/04/14 14:17:13;;;;;;;16.98;4.97;;;;;;;0.30;23.27;96694.09;6296146;28;20047;-70
2023/04/14 14:20:15;;;;;;;15.43;4.63;;;;;;;0.43;23.10;96733.44;6294738;28;20506;-70
2023/04/14 14:23:21;;;;;;;11.63;5.55;;;;;;;0.35;23.52;96751.78;6295511;28;20052;-70
2023/04/14 14:26:26;;;;;;;15.55;4.68;;;;;;;0.33;23.56;96750.94;6286225;28;20045;-71
2023/04/14 14:29:33;;;;;;;11.20;5.10;;;;;;;0.27;23.57;96735.59;6292078;28;20040;-70
2023/04/14 14:32:35;;;;;;;12.90;4.60;;;;;;;0.27;23.21;96743.34;6291065;28;20052;-71
2023/04/14 14:35:39;;;;;;;16.73;4.10;;;;;;;0.21;22.81;96746.09;6290321;28;20553;-72